Time,TemperatureF,DewpointF,PressureIn,WindDirection,WindDirectionDegrees,WindSpeedMPH,WindSpeedGustMPH,Humidity,HourlyPrecipIn,Conditions,Clouds,dailyrainin,SoftwareType,DateUTC
2013-02-01 00:02:00,-7.0,-13.0,-100.00,NW,325,9.0,12.0,73,0.00,,,0.00,,2013-02-01 06:02:00,
2013-02-01 00:11:00,-7.0,-13.0,-100.00,NW,320,7.0,10.0,73,0.00,,,0.00,,2013-02-01 06:11:00,
2013-02-01 00:22:00,-7.0,-13.0,-100.00,NW,310,6.0,10.0,73,0.00,,,0.00,,2013-02-01 06:22:00,
2013-02-01 00:32:00,-7.0,-13.0,-100.00,NW,305,9.0,11.0,73,0.00,,,0.00,,2013-02-01 06:32:00,
2013-02-01 00:42:00,-7.0,-13.0,-100.00,WNW,290,7.0,11.0,73,0.00,,,0.00,,2013-02-01 06:42:00,
2013-02-01 00:52:00,-7.0,-13.0,-100.00,WNW,285,7.0,9.0,74,0.00,,,0.00,,2013-02-01 06:52:00,
2013-02-01 01:01:00,-8.0,-13.0,-100.00,West,280,8.0,9.0,74,0.00,,,0.00,,2013-02-01 07:01:00,
2013-02-01 01:12:00,-8.0,-13.0,-100.00,West,280,7.0,9.0,75,0.00,,,0.00,,2013-02-01 07:12:00,
2013-02-01 01:22:00,-8.0,-13.0,-100.00,West,265,6.0,7.0,76,0.00,,,0.00,,2013-02-01 07:22:00,
2013-02-01 01:32:00,-8.0,-13.0,-100.00,West,280,7.0,8.0,76,0.00,,,0.00,,2013-02-01 07:32:00,
2013-02-01 01:41:00,-8.0,-13.0,-100.00,West,275,6.0,9.0,77,0.00,,,0.00,,2013-02-01 07:41:00,
2013-02-01 01:51:00,-8.0,-13.0,-100.00,WSW,250,6.0,9.0,77,0.00,,,0.00,,2013-02-01 07:51:00,
2013-02-01 02:01:00,-8.0,-13.0,-100.00,West,265,7.0,9.0,77,0.00,,,0.00,,2013-02-01 08:01:00,
2013-02-01 02:11:00,-8.0,-13.0,-100.00,West,265,6.0,7.0,78,0.00,,,0.00,,2013-02-01 08:11:00,
2013-02-01 02:21:00,-8.0,-13.0,-100.00,West,275,6.0,8.0,78,0.00,,,0.00,,2013-02-01 08:21:00,
2013-02-01 02:31:00,-8.0,-13.0,-100.00,West,265,7.0,8.0,78,0.00,,,0.00,,2013-02-01 08:31:00,
2013-02-01 02:42:00,-8.0,-13.0,-100.00,West,260,7.0,8.0,78,0.00,,,0.00,,2013-02-01 08:42:00,
2013-02-01 02:52:00,-8.0,-13.0,-100.00,West,275,6.0,9.0,78,0.00,,,0.00,,2013-02-01 08:52:00,
2013-02-01 03:01:00,-8.0,-13.0,-100.00,West,260,5.0,9.0,78,0.00,,,0.00,,2013-02-01 09:01:00,
2013-02-01 03:11:00,-8.0,-13.0,-100.00,West,270,4.0,7.0,78,0.00,,,0.00,,2013-02-01 09:11:00,
2013-02-01 03:21:00,-8.0,-13.0,-100.00,West,265,3.0,4.0,78,0.00,,,0.00,,2013-02-01 09:21:00,
2013-02-01 03:32:00,-8.0,-13.0,-100.00,West,260,3.0,4.0,78,0.00,,,0.00,,2013-02-01 09:32:00,
2013-02-01 03:41:00,-9.0,-13.0,-100.00,WSW,240,1.0,2.0,78,0.00,,,0.00,,2013-02-01 09:41:00,
2013-02-01 03:51:00,-9.0,-13.0,-100.00,SW,225,4.0,4.0,78,0.00,,,0.00,,2013-02-01 09:51:00,
2013-02-01 04:01:00,-9.0,-15.0,-100.00,SW,230,4.0,5.0,79,0.00,,,0.00,,2013-02-01 10:01:00,
2013-02-01 04:11:00,-9.0,-13.0,-100.00,SW,225,4.0,5.0,79,0.00,,,0.00,,2013-02-01 10:11:00,
2013-02-01 04:21:00,-9.0,-15.0,-100.00,SW,220,3.0,4.0,79,0.00,,,0.00,,2013-02-01 10:21:00,
2013-02-01 04:31:00,-9.0,-13.0,-100.00,SW,215,3.0,3.0,80,0.00,,,0.00,,2013-02-01 10:31:00,
2013-02-01 04:42:00,-9.0,-13.0,-100.00,SW,215,6.0,6.0,80,0.00,,,0.00,,2013-02-01 10:42:00,
2013-02-01 04:52:00,-9.0,-13.0,-100.00,SW,215,6.0,6.0,80,0.00,,,0.00,,2013-02-01 10:52:00,
2013-02-01 05:02:00,-9.0,-13.0,-100.00,South,190,6.0,7.0,81,0.00,,,0.00,,2013-02-01 11:02:00,
2013-02-01 05:11:00,-9.0,-13.0,-100.00,SW,215,7.0,9.0,81,0.00,,,0.00,,2013-02-01 11:11:00,
2013-02-01 05:22:00,-9.0,-13.0,-100.00,SSW,210,7.0,9.0,81,0.00,,,0.00,,2013-02-01 11:22:00,
2013-02-01 05:32:00,-8.0,-13.0,-100.00,SW,215,6.0,9.0,81,0.00,,,0.00,,2013-02-01 11:32:00,
2013-02-01 05:41:00,-9.0,-13.0,-100.00,SSW,200,5.0,7.0,81,0.00,,,0.00,,2013-02-01 11:41:00,
2013-02-01 05:53:00,-8.0,-13.0,-100.00,SSW,200,6.0,6.0,81,0.00,,,0.00,,2013-02-01 11:53:00,
2013-02-01 06:02:00,-9.0,-13.0,-100.00,South,190,2.0,6.0,82,0.00,,,0.00,,2013-02-01 12:02:00,
2013-02-01 06:12:00,-8.0,-13.0,-100.00,WSW,240,1.0,2.0,82,0.00,,,0.00,,2013-02-01 12:12:00,
2013-02-01 06:22:00,-9.0,-13.0,-100.00,SSW,210,4.0,4.0,82,0.00,,,0.00,,2013-02-01 12:22:00,
2013-02-01 06:32:00,-9.0,-13.0,-100.00,SW,220,2.0,4.0,82,0.00,,,0.00,,2013-02-01 12:32:00,
2013-02-01 06:42:00,-9.0,-13.0,-100.00,SW,220,2.0,4.0,82,0.00,,,0.00,,2013-02-01 12:42:00,
2013-02-01 06:52:00,-8.0,-13.0,-100.00,South,185,1.0,2.0,82,0.00,,,0.00,,2013-02-01 12:52:00,
2013-02-01 07:02:00,-8.0,-13.0,-100.00,SSW,200,1.0,2.0,82,0.00,,,0.00,,2013-02-01 13:02:00,
2013-02-01 07:11:00,-8.0,-11.0,-100.00,South,190,1.0,2.0,82,0.00,,,0.00,,2013-02-01 13:11:00,
2013-02-01 07:22:00,-7.0,-11.0,-100.00,ESE,120,2.0,4.0,82,0.00,,,0.00,,2013-02-01 13:22:00,
2013-02-01 07:32:00,-7.0,-11.0,-100.00,SSE,155,6.0,7.0,82,0.00,,,0.00,,2013-02-01 13:32:00,
2013-02-01 07:42:00,-6.0,-9.0,-100.00,South,190,5.0,7.0,82,0.00,,,0.00,,2013-02-01 13:42:00,
2013-02-01 07:52:00,-6.0,-9.0,-100.00,SSW,195,8.0,9.0,82,0.00,,,0.00,,2013-02-01 13:52:00,
2013-02-01 08:03:00,-6.0,-9.0,-100.00,South,190,8.0,9.0,82,0.00,,,0.00,,2013-02-01 14:03:00,
2013-02-01 08:11:00,-6.0,-9.0,-100.00,South,175,6.0,9.0,82,0.00,,,0.00,,2013-02-01 14:11:00,
2013-02-01 08:21:00,-5.0,-9.0,-100.00,South,185,8.0,9.0,82,0.00,,,0.00,,2013-02-01 14:21:00,
2013-02-01 08:32:00,-4.0,-8.0,-100.00,SSW,195,6.0,10.0,82,0.00,,,0.00,,2013-02-01 14:32:00,
2013-02-01 08:42:00,-4.0,-8.0,-100.00,SSW,205,6.0,10.0,82,0.00,,,0.00,,2013-02-01 14:42:00,
2013-02-01 08:52:00,-3.0,-8.0,-100.00,South,185,9.0,12.0,82,0.00,,,0.00,,2013-02-01 14:52:00,
2013-02-01 09:02:00,-1.0,-6.0,-100.00,South,190,10.0,12.0,81,0.00,,,0.00,,2013-02-01 15:02:00,
2013-02-01 09:12:00,-1.0,-6.0,-100.00,SSW,200,10.0,13.0,80,0.00,,,0.00,,2013-02-01 15:12:00,
2013-02-01 09:21:00,-1.0,-6.0,-100.00,South,190,11.0,14.0,79,0.00,,,0.00,,2013-02-01 15:21:00,
2013-02-01 09:33:00,0.0,-6.0,-100.00,South,185,12.0,15.0,78,0.00,,,0.00,,2013-02-01 15:33:00,
2013-02-01 09:42:00,2.0,-4.0,-100.00,South,190,12.0,15.0,77,0.00,,,0.00,,2013-02-01 15:42:00,
2013-02-01 09:52:00,1.0,-4.0,-100.00,South,190,12.0,15.0,76,0.00,,,0.00,,2013-02-01 15:52:00,
2013-02-01 10:03:00,1.0,-4.0,-100.00,SSW,195,15.0,17.0,75,0.00,,,0.00,,2013-02-01 16:03:00,
2013-02-01 10:11:00,2.0,-4.0,-100.00,SSW,195,13.0,16.0,74,0.00,,,0.00,,2013-02-01 16:11:00,
2013-02-01 10:22:00,2.0,-4.0,-100.00,SSW,200,15.0,18.0,74,0.00,,,0.00,,2013-02-01 16:22:00,
2013-02-01 10:33:00,3.0,-4.0,-100.00,SSW,200,16.0,19.0,72,0.00,,,0.00,,2013-02-01 16:33:00,
2013-02-01 10:42:00,4.0,-4.0,-100.00,South,190,16.0,19.0,72,0.00,,,0.00,,2013-02-01 16:42:00,
2013-02-01 10:52:00,4.0,-2.0,-100.00,SSW,195,14.0,19.0,71,0.00,,,0.00,,2013-02-01 16:52:00,
2013-02-01 11:02:00,5.0,-2.0,-100.00,SSW,195,12.0,18.0,71,0.00,,,0.00,,2013-02-01 17:02:00,
2013-02-01 11:11:00,5.0,-2.0,-100.00,South,190,15.0,19.0,71,0.00,,,0.00,,2013-02-01 17:11:00,
2013-02-01 11:22:00,6.0,-2.0,-100.00,South,185,17.0,21.0,69,0.00,,,0.00,,2013-02-01 17:22:00,
2013-02-01 11:32:00,7.0,0.0,-100.00,South,190,15.0,20.0,68,0.00,,,0.00,,2013-02-01 17:32:00,
2013-02-01 11:42:00,8.0,0.0,-100.00,SSW,195,15.0,21.0,67,0.00,,,0.00,,2013-02-01 17:42:00,
2013-02-01 11:52:00,8.0,0.0,-100.00,South,190,18.0,22.0,66,0.00,,,0.00,,2013-02-01 17:52:00,
2013-02-01 12:02:00,8.0,0.0,-100.00,SSW,195,16.0,21.0,66,0.00,,,0.00,,2013-02-01 18:02:00,
2013-02-01 12:12:00,8.0,0.0,-100.00,South,190,18.0,21.0,67,0.00,,,0.00,,2013-02-01 18:12:00,
2013-02-01 12:22:00,9.0,0.0,-100.00,SSW,195,18.0,21.0,67,0.00,,,0.00,,2013-02-01 18:22:00,
2013-02-01 12:32:00,9.0,1.0,-100.00,South,190,17.0,21.0,67,0.00,,,0.00,,2013-02-01 18:32:00,
2013-02-01 12:42:00,9.0,1.0,-100.00,South,190,17.0,21.0,67,0.00,,,0.00,,2013-02-01 18:42:00,
2013-02-01 12:52:00,10.0,1.0,-100.00,SSW,195,13.0,19.0,67,0.00,,,0.00,,2013-02-01 18:52:00,
2013-02-01 13:02:00,10.0,1.0,-100.00,SSW,205,18.0,21.0,67,0.00,,,0.00,,2013-02-01 19:02:00,
2013-02-01 13:11:00,10.0,1.0,-100.00,SSW,195,16.0,21.0,68,0.00,,,0.00,,2013-02-01 19:11:00,
2013-02-01 13:21:00,10.0,1.0,-100.00,South,190,16.0,20.0,68,0.00,,,0.00,,2013-02-01 19:21:00,
2013-02-01 13:32:00,10.0,1.0,-100.00,South,185,14.0,20.0,68,0.00,,,0.00,,2013-02-01 19:32:00,
2013-02-01 13:41:00,11.0,3.0,-100.00,SSW,195,16.0,19.0,69,0.00,,,0.00,,2013-02-01 19:41:00,
2013-02-01 13:51:00,11.0,3.0,-100.00,SSW,195,16.0,19.0,69,0.00,,,0.00,,2013-02-01 19:51:00,
2013-02-01 14:02:00,12.0,3.0,-100.00,SSW,195,17.0,21.0,68,0.00,,,0.00,,2013-02-01 20:02:00,
2013-02-01 14:11:00,12.0,3.0,-100.00,South,185,19.0,22.0,68,0.00,,,0.00,,2013-02-01 20:11:00,
2013-02-01 14:21:00,12.0,3.0,-100.00,South,185,16.0,21.0,68,0.00,,,0.00,,2013-02-01 20:21:00,
2013-02-01 14:31:00,14.0,5.0,-100.00,SSW,200,12.0,19.0,67,0.00,,,0.00,,2013-02-01 20:31:00,
2013-02-01 14:41:00,13.0,5.0,-100.00,South,180,17.0,19.0,67,0.00,,,0.00,,2013-02-01 20:41:00,
2013-02-01 14:52:00,13.0,5.0,-100.00,South,185,16.0,21.0,67,0.00,,,0.00,,2013-02-01 20:52:00,
2013-02-01 15:02:00,14.0,5.0,-100.00,SSW,195,16.0,20.0,67,0.00,,,0.00,,2013-02-01 21:02:00,
2013-02-01 15:11:00,14.0,5.0,-100.00,SSW,195,18.0,21.0,67,0.00,,,0.00,,2013-02-01 21:11:00,
2013-02-01 15:21:00,15.0,7.0,-100.00,SSW,200,18.0,21.0,67,0.00,,,0.00,,2013-02-01 21:21:00,
2013-02-01 15:32:00,15.0,7.0,-100.00,SSW,195,18.0,23.0,67,0.00,,,0.00,,2013-02-01 21:32:00,
2013-02-01 15:41:00,15.0,7.0,-100.00,SSW,205,19.0,23.0,67,0.00,,,0.00,,2013-02-01 21:41:00,
2013-02-01 15:52:00,16.0,7.0,-100.00,SSW,200,17.0,21.0,67,0.00,,,0.00,,2013-02-01 21:52:00,
2013-02-01 16:02:00,16.0,7.0,-100.00,SSW,200,16.0,21.0,67,0.00,,,0.00,,2013-02-01 22:02:00,
2013-02-01 16:11:00,16.0,7.0,-100.00,SSW,205,20.0,22.0,67,0.00,,,0.00,,2013-02-01 22:11:00,
2013-02-01 16:21:00,17.0,9.0,-100.00,SSW,200,16.0,22.0,67,0.00,,,0.00,,2013-02-01 22:21:00,
2013-02-01 16:32:00,17.0,9.0,-100.00,SSW,205,19.0,22.0,67,0.00,,,0.00,,2013-02-01 22:32:00,
2013-02-01 16:42:00,17.0,9.0,-100.00,SSW,210,16.0,21.0,66,0.00,,,0.00,,2013-02-01 22:42:00,
2013-02-01 16:51:00,18.0,9.0,-100.00,SSW,205,14.0,21.0,66,0.00,,,0.00,,2013-02-01 22:51:00,
2013-02-01 17:01:00,18.0,9.0,-100.00,SW,215,11.0,19.0,67,0.00,,,0.00,,2013-02-01 23:01:00,
2013-02-01 17:11:00,18.0,9.0,-100.00,SSW,210,12.0,14.0,67,0.00,,,0.00,,2013-02-01 23:11:00,
2013-02-01 17:21:00,18.0,9.0,-100.00,SSW,205,11.0,14.0,68,0.00,,,0.00,,2013-02-01 23:21:00,
2013-02-01 17:31:00,18.0,9.0,-100.00,SSW,205,9.0,12.0,68,0.00,,,0.00,,2013-02-01 23:31:00,
2013-02-01 17:41:00,17.0,9.0,-100.00,South,190,6.0,9.0,70,0.00,,,0.00,,2013-02-01 23:41:00,
2013-02-01 17:52:00,17.0,9.0,-100.00,SSW,195,6.0,7.0,71,0.00,,,0.00,,2013-02-01 23:52:00,
2013-02-01 18:02:00,16.0,9.0,-100.00,SSW,195,6.0,6.0,72,0.00,,,0.00,,2013-02-02 00:02:00,
2013-02-01 18:11:00,16.0,9.0,-100.00,SSW,210,3.0,6.0,73,0.00,,,0.00,,2013-02-02 00:11:00,
2013-02-01 18:21:00,16.0,10.0,-100.00,South,170,2.0,6.0,74,0.00,,,0.00,,2013-02-02 00:21:00,
2013-02-01 18:32:00,17.0,10.0,-100.00,NE,55,1.0,2.0,74,0.00,,,0.00,,2013-02-02 00:32:00,
2013-02-01 18:41:00,16.0,10.0,-100.00,East,95,2.0,3.0,74,0.00,,,0.00,,2013-02-02 00:41:00,
2013-02-01 18:52:00,16.0,9.0,-100.00,SW,215,0.0,2.0,74,0.00,,,0.00,,2013-02-02 00:52:00,
2013-02-01 19:02:00,16.0,9.0,-100.00,SSE,160,2.0,3.0,75,0.00,,,0.00,,2013-02-02 01:02:00,
2013-02-01 19:11:00,15.0,9.0,-100.00,SSW,195,1.0,4.0,76,0.00,,,0.00,,2013-02-02 01:11:00,
2013-02-01 19:21:00,15.0,9.0,-100.00,NNE,25,4.0,4.0,77,0.00,,,0.00,,2013-02-02 01:21:00,
2013-02-01 19:32:00,15.0,10.0,-100.00,ENE,60,3.0,6.0,79,0.00,,,0.00,,2013-02-02 01:32:00,
2013-02-01 19:41:00,16.0,10.0,-100.00,East,95,1.0,5.0,79,0.00,,,0.00,,2013-02-02 01:41:00,
2013-02-01 19:52:00,16.0,10.0,-100.00,SE,135,2.0,3.0,79,0.00,,,0.00,,2013-02-02 01:52:00,
2013-02-01 20:01:00,16.0,10.0,-100.00,NW,320,0.0,2.0,79,0.00,,,0.00,,2013-02-02 02:01:00,
2013-02-01 20:11:00,16.0,10.0,-100.00,North,10,2.0,4.0,79,0.00,,,0.00,,2013-02-02 02:11:00,
2013-02-01 20:21:00,16.0,10.0,-100.00,West,275,0.0,3.0,80,0.00,,,0.00,,2013-02-02 02:21:00,
2013-02-01 20:31:00,16.0,10.0,-100.00,West,270,0.0,0.0,81,0.00,,,0.00,,2013-02-02 02:31:00,
2013-02-01 20:41:00,16.0,12.0,-100.00,WNW,300,1.0,3.0,81,0.00,,,0.00,,2013-02-02 02:41:00,
2013-02-01 20:52:00,17.0,12.0,-100.00,NW,305,1.0,3.0,81,0.00,,,0.00,,2013-02-02 02:52:00,
2013-02-01 21:02:00,17.0,12.0,-100.00,NW,320,2.0,3.0,81,0.00,,,0.00,,2013-02-02 03:02:00,
2013-02-01 21:11:00,17.0,12.0,-100.00,NNW,330,3.0,4.0,81,0.00,,,0.00,,2013-02-02 03:11:00,
2013-02-01 21:21:00,17.0,12.0,-100.00,NW,315,4.0,6.0,80,0.00,,,0.00,,2013-02-02 03:21:00,
2013-02-01 21:32:00,17.0,12.0,-100.00,WNW,300,4.0,7.0,78,0.00,,,0.00,,2013-02-02 03:32:00,
2013-02-01 21:42:00,18.0,12.0,-100.00,NW,305,4.0,7.0,77,0.00,,,0.00,,2013-02-02 03:42:00,
2013-02-01 21:52:00,17.0,10.0,-100.00,NW,315,6.0,7.0,77,0.00,,,0.00,,2013-02-02 03:52:00,
2013-02-01 22:01:00,16.0,10.0,-100.00,NW,325,6.0,7.0,78,0.00,,,0.00,,2013-02-02 04:01:00,
2013-02-01 22:11:00,15.0,10.0,-100.00,NNW,330,8.0,9.0,80,0.00,,,0.00,,2013-02-02 04:11:00,
2013-02-01 22:21:00,14.0,10.0,-100.00,NNW,345,11.0,12.0,82,0.00,,,0.00,,2013-02-02 04:21:00,
2013-02-01 22:32:00,16.0,12.0,-100.00,NNW,345,12.0,15.0,83,0.00,,,0.00,,2013-02-02 04:32:00,
2013-02-01 22:41:00,15.0,12.0,-100.00,NNW,345,11.0,13.0,84,0.00,,,0.00,,2013-02-02 04:41:00,
2013-02-01 22:51:00,15.0,12.0,-100.00,NNW,345,11.0,13.0,85,0.00,,,0.00,,2013-02-02 04:51:00,
2013-02-01 23:03:00,16.0,12.0,-100.00,North,350,12.0,14.0,85,0.00,,,0.00,,2013-02-02 05:03:00,
2013-02-01 23:12:00,16.0,12.0,-100.00,North,350,13.0,16.0,85,0.00,,,0.00,,2013-02-02 05:12:00,
2013-02-01 23:22:00,16.0,12.0,-100.00,North,350,14.0,18.0,85,0.00,,,0.00,,2013-02-02 05:22:00,
2013-02-01 23:33:00,15.0,12.0,-100.00,NNW,340,15.0,18.0,85,0.00,,,0.00,,2013-02-02 05:33:00,
2013-02-01 23:41:00,15.0,12.0,-100.00,NNW,340,15.0,18.0,86,0.00,,,0.00,,2013-02-02 05:41:00,
2013-02-01 23:52:00,15.0,12.0,-100.00,NNW,335,14.0,17.0,87,0.00,,,0.00,,2013-02-02 05:52:00,